Castaic, CA (91310)

3:36 AM PDT on March 26, 2017 (GMT -0700)
Castaic Weather | | Change Station
Active Advisory: High Wind Watch

Elev 1670 ft 34.48 °N, 118.64 °W | Updated 3 minutes ago

Clear
Clear
49.5 °F
Feels Like 50 °F
N
0.0
Wind Variable Wind from SW
Gusts 0.0 mph

Today
High -- | Low -- °F
--% Chance of Precip.
Yesterday
High -- | Low -- °F
Precip. -- in
Pressure 29.99 in
Visibility 10.0 miles
Clouds Clear
Windchill 50 °F
Dew Point 43 °F
Humidity 77%
Rainfall 0.00 in
Snow Depth Not available.
6:49 AM 7:11 PM
Waning Crescent, 4% visible
METAR KVNY 260951Z AUTO 00000KT 10SM CLR 11/10 A3000 RMK AO2 SLP155 T01110100
Pressure 29.99 in
Visibility 10.0 miles
Clouds Clear
Windchill 50 °F
Dew Point 43 °F
Humidity 77%
Rainfall 0.00 in
Snow Depth Not available.
6:49 AM 7:11 PM
Waning Crescent, 4% visible
METAR KVNY 260951Z AUTO 00000KT 10SM CLR 11/10 A3000 RMK AO2 SLP155 T01110100

Get Your Daily Forecast Email!

Thanks for signing up!

Be on the lookout for a verification email in your inbox.

You'll start receiving severe weather alerts in your inbox..

×

10-Day Weather Forecast

Almanac

Astronomy

Mar. 26, 2017 Rise Set
Actual Time
Civil Twilight
Nautical Twilight
Astronomical Twilight
Moon
Length of Visible Light
Length of Day
Tomorrow will be .
, % of the Moon is Illuminated

Today's Extremes

State Highs State Lows

Community

WunderPhotos

Upload Photos

1,962,540 photos uploaded!

WunderBlog® & News

Nearby

Air Quality

  Air Quality AQ Index Pollutant
Not available.

Snow Depth

Station Depth Elevation

Earthquake Activity

City Distance Mag. Time & Date
Minimum magnitude displayed is 2.5.

Earthquake Activity

City Distance Mag. Time & Date
Minimum magnitude displayed is 2.5.

Coastal Water Temperatures

Place Temperature

Stations

Nearby Weather Stations

Station Location Temp. Windchill Dew Point Humidity Wind Precip. Elev Updated Type
                   

Watches & Warnings

High Wind Watch
Issued: 3:07 AM PDT Mar. 26, 2017 – National Weather Service

... High wind watch in effect from Monday evening through Tuesday
morning...

The National Weather Service in Los Angeles/Oxnard has issued a
high wind watch, which is in effect from Monday evening through
Tuesday morning.

* Winds and timing... north winds with the potential of 60 mph
gusts will develop early Monday evening and persist into Tuesday
morning.

* Impacts... winds this strong could damage property.

Precautionary/preparedness actions...

A high wind watch means that conditions are favorable for
potentially damaging winds of 58 mph or greater. Be prepared to
secure all loose outdoor furniture in advance of the onset of
strong winds. Monitor the latest forecasts on NOAA Weather Radio
or your favorite media source.